Time;durP1;ratioP1;P1;durP2;ratioP2;P2;SDS_P1;SDS_P2;PMS_P1;PMS_P2;Temp;Humidity;BMP_temperature;BMP_pressure;BME280_temperature;BME280_humidity;BME280_pressure;Samples;Min_cycle;Max_cycle;Signal;HPM_P1;HPM_P2
2023/03/30 00:01:51;;;;;;;6.95;3.20;;;;;;;;;;5082352;28;20088;-67
2023/03/30 00:04:17;;;;;;;8.82;3.33;;;;;;;;;;5081958;28;20048;-69
2023/03/30 00:06:42;;;;;;;11.68;2.85;;;;;;;;;;5070278;28;20051;-68
2023/03/30 00:09:08;;;;;;;12.80;3.08;;;;;;;;;;5077723;28;20451;-65
2023/03/30 00:11:34;;;;;;;7.53;3.03;;;;;;;;;;5071080;28;20429;-67
2023/03/30 00:13:59;;;;;;;11.18;3.65;;;;;;;;;;5081936;28;20466;-69
2023/03/30 00:16:26;;;;;;;10.60;3.55;;;;;;;;;;5070369;28;20077;-65
2023/03/30 00:18:51;;;;;;;11.35;4.22;;;;;;;;;;5070763;28;20016;-67
2023/03/30 00:21:19;;;;;;;15.75;3.47;;;;;;;;;;5070855;28;20516;-66
2023/03/30 00:23:47;;;;;;;8.93;3.27;;;;;;;;;;5069971;28;20055;-66
2023/03/30 00:26:13;;;;;;;9.50;3.25;;;;;;;;;;5076071;28;20264;-67
2023/03/30 00:28:39;;;;;;;8.82;3.00;;;;;;;;;;5082147;28;20581;-67
2023/03/30 00:31:04;;;;;;;11.05;3.50;;;;;;;;;;5070859;28;20020;-67
2023/03/30 00:33:29;;;;;;;7.72;3.28;;;;;;;;;;5070622;28;20040;-68
2023/03/30 00:35:56;;;;;;;9.20;3.20;;;;;;;;;;5070685;28;20036;-64
2023/03/30 00:38:21;;;;;;;8.77;3.47;;;;;;;;;;5069493;28;20092;-68
2023/03/30 00:40:50;;;;;;;10.50;3.30;;;;;;;;;;5069945;28;20055;-65
2023/03/30 00:43:15;;;;;;;;;;;;;;;;;;5075151;28;20034;-65
2023/03/30 00:45:40;;;;;;;9.75;3.40;;;;;;;;;;5074784;28;19908;-68
2023/03/30 00:48:07;;;;;;;12.48;4.80;;;;;;;;;;5082021;28;20040;-67
2023/03/30 00:50:42;;;;;;;11.38;4.50;;;;;;;;;;5089023;28;20031;-67
2023/03/30 00:53:14;;;;;;;10.77;3.75;;;;;;;;;;5076939;28;20105;-68
2023/03/30 00:55:41;;;;;;;9.82;3.15;;;;;;;;;;5080489;28;20028;-67
2023/03/30 00:58:08;;;;;;;6.18;3.17;;;;;;;;;;5086600;28;20039;-66
2023/03/30 01:00:37;;;;;;;8.05;3.42;;;;;;;;;;5090252;28;20068;-68
2023/03/30 01:03:04;;;;;;;8.48;3.13;;;;;;;;;;5070620;28;20641;-68
2023/03/30 01:05:29;;;;;;;9.85;4.18;;;;;;;;;;5085870;28;20035;-67
2023/03/30 01:07:56;;;;;;;11.43;3.55;;;;;;;;;;5075259;28;20016;-69
2023/03/30 01:10:22;;;;;;;9.65;3.03;;;;;;;;;;5079463;28;20036;-68
2023/03/30 01:12:48;;;;;;;10.35;3.20;;;;;;;;;;5087822;28;20512;-65
2023/03/30 01:15:15;;;;;;;10.38;3.70;;;;;;;;;;5089863;28;20020;-70
2023/03/30 01:17:52;;;;;;;11.00;2.63;;;;;;;;;;5069629;28;20077;-67
2023/03/30 01:20:29;;;;;;;11.02;3.58;;;;;;;;;;5090309;28;20041;-66
2023/03/30 01:23:14;;;;;;;8.63;3.13;;;;;;;;;;5090264;28;20445;-67
2023/03/30 01:25:50;;;;;;;7.57;2.75;;;;;;;;;;5078252;28;20016;-68
2023/03/30 01:28:20;;;;;;;19.17;4.15;;;;;;;;;;5089017;28;20375;-66
2023/03/30 01:30:45;;;;;;;5.35;2.55;;;;;;;;;;5089925;28;20027;-67
2023/03/30 01:33:30;;;;;;;9.90;3.25;;;;;;;;;;5089267;28;20016;-69
2023/03/30 01:36:18;;;;;;;8.02;3.28;;;;;;;;;;5090403;28;20180;-68
2023/03/30 01:38:43;;;;;;;9.88;2.97;;;;;;;;;;5044798;28;20507;-67
2023/03/30 01:41:09;;;;;;;10.20;2.70;;;;;;;;;;5071784;28;20028;-67
2023/03/30 01:43:42;;;;;;;6.15;2.65;;;;;;;;;;5078843;28;20265;-69
2023/03/30 01:46:12;;;;;;;7.85;2.88;;;;;;;;;;5081061;28;20020;-67
2023/03/30 01:48:44;;;;;;;11.20;4.90;;;;;;;;;;5075446;28;20453;-69
2023/03/30 01:51:13;;;;;;;6.05;3.03;;;;;;;;;;5084074;28;20090;-69
2023/03/30 01:53:41;;;;;;;14.65;3.50;;;;;;;;;;5083238;28;20016;-67
2023/03/30 01:56:12;;;;;;;6.68;2.60;;;;;;;;;;5073144;28;20048;-66
2023/03/30 01:58:47;;;;;;;6.18;2.50;;;;;;;;;;5071309;28;20050;-66
2023/03/30 02:01:16;;;;;;;9.15;2.55;;;;;;;;;;5070895;28;20119;-67
2023/03/30 02:03:42;;;;;;;6.95;2.30;;;;;;;;;;5068022;28;20032;-69
2023/03/30 02:06:11;;;;;;;14.85;2.88;;;;;;;;;;5068830;28;20439;-64
2023/03/30 02:08:38;;;;;;;5.50;2.53;;;;;;;;;;5075854;28;20069;-67
2023/03/30 02:11:03;;;;;;;9.35;2.90;;;;;;;;;;5052325;28;20024;-67
2023/03/30 02:13:30;;;;;;;10.45;3.10;;;;;;;;;;5069001;28;20020;-64
2023/03/30 02:15:58;;;;;;;5.40;2.97;;;;;;;;;;5069804;28;20048;-64
2023/03/30 02:18:24;;;;;;;7.20;2.83;;;;;;;;;;5066566;28;20063;-67
2023/03/30 02:20:49;;;;;;;7.22;3.10;;;;;;;;;;5068325;28;20040;-68
2023/03/30 02:23:16;;;;;;;7.32;2.97;;;;;;;;;;5068896;28;20038;-67
2023/03/30 02:25:41;;;;;;;7.28;3.10;;;;;;;;;;5068643;28;20032;-68
2023/03/30 02:28:07;;;;;;;8.65;2.85;;;;;;;;;;5067475;28;20230;-67
2023/03/30 02:30:33;;;;;;;9.57;3.50;;;;;;;;;;5078387;28;20120;-68
2023/03/30 02:32:58;;;;;;;7.53;3.03;;;;;;;;;;5067319;28;20025;-68
2023/03/30 02:35:42;;;;;;;10.85;3.35;;;;;;;;;;5068452;28;20033;-68
2023/03/30 02:38:27;;;;;;;10.38;3.05;;;;;;;;;;5067386;28;20032;-66
2023/03/30 02:41:08;;;;;;;11.60;3.00;;;;;;;;;;5068448;28;20469;-68
2023/03/30 02:43:40;;;;;;;6.30;3.00;;;;;;;;;;5078700;28;20397;-67
2023/03/30 02:46:05;;;;;;;6.65;2.97;;;;;;;;;;5083869;28;20026;-67
2023/03/30 02:48:40;;;;;;;6.45;2.58;;;;;;;;;;5079209;28;20012;-67
2023/03/30 02:51:05;;;;;;;8.90;2.70;;;;;;;;;;5083701;28;20073;-66
2023/03/30 02:53:38;;;;;;;5.93;3.03;;;;;;;;;;5068426;28;20020;-69
2023/03/30 02:56:04;;;;;;;10.57;3.47;;;;;;;;;;5067875;28;20020;-66
2023/03/30 02:58:38;;;;;;;9.88;3.75;;;;;;;;;;5049242;28;20107;-68
2023/03/30 03:01:12;;;;;;;10.20;3.58;;;;;;;;;;5078921;28;20043;-67
2023/03/30 03:03:42;;;;;;;7.28;3.13;;;;;;;;;;5066495;28;20021;-65
2023/03/30 03:06:08;;;;;;;11.52;3.38;;;;;;;;;;5067789;28;20446;-65
2023/03/30 03:08:38;;;;;;;8.45;3.30;;;;;;;;;;5073951;28;20040;-66
2023/03/30 03:11:03;;;;;;;8.68;2.92;;;;;;;;;;5069468;28;20021;-69
2023/03/30 03:13:29;;;;;;;9.07;2.90;;;;;;;;;;5067596;28;20021;-67
2023/03/30 03:15:55;;;;;;;6.95;2.10;;;;;;;;;;5075294;28;20123;-69
2023/03/30 03:18:21;;;;;;;6.72;2.63;;;;;;;;;;5064452;28;20082;-67
2023/03/30 03:20:46;;;;;;;9.50;2.53;;;;;;;;;;5067350;28;20025;-67
2023/03/30 03:23:11;;;;;;;6.50;2.78;;;;;;;;;;5067486;28;20021;-66
2023/03/30 03:25:37;;;;;;;8.35;2.80;;;;;;;;;;5068338;28;20024;-66
2023/03/30 03:28:02;;;;;;;6.85;2.40;;;;;;;;;;5067694;28;20023;-65
2023/03/30 03:30:27;;;;;;;8.98;2.83;;;;;;;;;;5071229;28;20047;-65
2023/03/30 03:32:52;;;;;;;7.82;3.60;;;;;;;;;;5073536;28;20023;-68
2023/03/30 03:35:18;;;;;;;6.55;2.58;;;;;;;;;;5074039;28;20070;-66
2023/03/30 03:37:43;;;;;;;6.05;2.92;;;;;;;;;;5073290;28;20106;-68
2023/03/30 03:40:11;;;;;;;8.68;2.70;;;;;;;;;;5074365;28;20304;-68
2023/03/30 03:42:36;;;;;;;10.68;3.08;;;;;;;;;;5081033;28;20020;-65
2023/03/30 03:45:02;;;;;;;7.57;2.75;;;;;;;;;;5066001;28;20103;-68
2023/03/30 03:47:27;;;;;;;4.97;2.28;;;;;;;;;;5086651;28;20734;-66
2023/03/30 03:49:53;;;;;;;3.90;2.08;;;;;;;;;;5089633;28;20036;-68
2023/03/30 03:52:18;;;;;;;9.98;2.58;;;;;;;;;;5083352;28;20024;-67
2023/03/30 03:54:43;;;;;;;5.13;2.70;;;;;;;;;;5074801;28;20017;-67
2023/03/30 03:57:08;;;;;;;11.68;4.78;;;;;;;;;;5073405;28;20438;-65
2023/03/30 03:59:33;;;;;;;14.73;2.90;;;;;;;;;;5074603;28;20024;-69
2023/03/30 04:01:59;;;;;;;9.35;3.42;;;;;;;;;;5079213;28;20178;-66
2023/03/30 04:04:24;;;;;;;7.30;2.65;;;;;;;;;;5073698;28;20024;-68
2023/03/30 04:06:50;;;;;;;5.93;2.47;;;;;;;;;;5081996;28;20043;-66
2023/03/30 04:09:16;;;;;;;13.68;3.20;;;;;;;;;;5082791;28;20612;-67
2023/03/30 04:11:41;;;;;;;7.95;3.42;;;;;;;;;;5074560;28;20017;-68
2023/03/30 04:14:06;;;;;;;13.23;3.30;;;;;;;;;;5074621;28;20024;-66
2023/03/30 04:16:31;;;;;;;6.35;2.42;;;;;;;;;;5081761;28;20629;-67
2023/03/30 04:18:56;;;;;;;12.57;2.70;;;;;;;;;;5090362;28;20035;-67
2023/03/30 04:21:22;;;;;;;23.83;4.78;;;;;;;;;;5089781;28;20041;-68
2023/03/30 04:23:47;;;;;;;26.15;5.75;;;;;;;;;;5077566;28;20436;-66
2023/03/30 04:26:14;;;;;;;62.10;10.65;;;;;;;;;;5085816;28;20016;-67
2023/03/30 04:28:40;;;;;;;16.05;4.07;;;;;;;;;;5080063;28;20023;-68
2023/03/30 04:31:12;;;;;;;11.13;2.85;;;;;;;;;;5074354;28;20063;-66
2023/03/30 04:33:44;;;;;;;9.15;3.05;;;;;;;;;;5090360;28;20052;-69
2023/03/30 04:36:09;;;;;;;7.60;2.58;;;;;;;;;;5089771;28;20017;-66
2023/03/30 04:38:35;;;;;;;7.35;2.63;;;;;;;;;;5085526;28;20438;-68
2023/03/30 04:41:00;;;;;;;9.10;2.97;;;;;;;;;;5083434;28;20016;-67
2023/03/30 04:43:26;;;;;;;10.27;3.30;;;;;;;;;;5084155;28;20592;-66
2023/03/30 04:45:52;;;;;;;19.27;3.67;;;;;;;;;;5069467;28;20016;-68
2023/03/30 04:48:18;;;;;;;5.93;2.28;;;;;;;;;;5090201;28;20020;-66
2023/03/30 04:50:44;;;;;;;18.65;2.83;;;;;;;;;;5074315;28;20090;-69
2023/03/30 04:53:09;;;;;;;12.32;3.95;;;;;;;;;;5052463;28;20077;-68
2023/03/30 04:55:35;;;;;;;17.02;4.22;;;;;;;;;;5082178;28;20499;-68
2023/03/30 04:58:00;;;;;;;35.08;5.53;;;;;;;;;;5089031;28;20035;-67
2023/03/30 05:00:26;;;;;;;21.33;5.22;;;;;;;;;;5080569;28;20017;-65
2023/03/30 05:02:51;;;;;;;21.50;5.78;;;;;;;;;;5085971;28;20482;-67
2023/03/30 05:05:17;;;;;;;14.38;4.07;;;;;;;;;;5086322;28;20084;-67
2023/03/30 05:07:42;;;;;;;11.98;3.03;;;;;;;;;;5085829;28;20016;-69
2023/03/30 05:10:07;;;;;;;8.88;3.33;;;;;;;;;;5089237;28;20142;-65
2023/03/30 05:12:32;;;;;;;10.93;3.40;;;;;;;;;;5087735;28;20081;-68
2023/03/30 05:14:58;;;;;;;18.77;5.72;;;;;;;;;;5086142;28;20116;-65
2023/03/30 05:17:23;;;;;;;16.15;3.90;;;;;;;;;;5079072;28;20022;-68
2023/03/30 05:19:48;;;;;;;7.20;2.78;;;;;;;;;;5084368;28;20020;-67
2023/03/30 05:22:14;;;;;;;16.30;3.53;;;;;;;;;;5074186;28;20522;-69
2023/03/30 05:24:39;;;;;;;15.75;4.38;;;;;;;;;;5084020;28;20376;-69
2023/03/30 05:27:05;;;;;;;11.27;3.15;;;;;;;;;;5076607;28;20044;-66
2023/03/30 05:29:30;;;;;;;12.57;3.67;;;;;;;;;;5069845;28;20490;-68
2023/03/30 05:31:56;;;;;;;10.07;3.20;;;;;;;;;;5070602;28;20161;-66
2023/03/30 05:34:21;;;;;;;11.00;3.05;;;;;;;;;;5078044;28;20120;-70
2023/03/30 05:36:46;;;;;;;18.38;3.03;;;;;;;;;;5068261;28;20052;-69
2023/03/30 05:39:12;;;;;;;13.57;5.13;;;;;;;;;;5069176;28;20036;-66
2023/03/30 05:41:37;;;;;;;19.15;4.60;;;;;;;;;;5070892;28;20048;-67
2023/03/30 05:44:03;;;;;;;10.80;3.05;;;;;;;;;;5080350;28;20074;-67
2023/03/30 05:46:29;;;;;;;8.25;2.33;;;;;;;;;;5078023;28;20086;-68
2023/03/30 05:48:54;;;;;;;5.80;2.50;;;;;;;;;;5081018;28;20025;-66
2023/03/30 05:51:19;;;;;;;18.58;3.00;;;;;;;;;;5069218;28;20027;-68
2023/03/30 05:53:44;;;;;;;7.10;2.33;;;;;;;;;;5069464;28;20104;-66
2023/03/30 05:56:10;;;;;;;11.77;3.88;;;;;;;;;;5069337;28;20101;-69
2023/03/30 05:58:35;;;;;;;10.75;3.10;;;;;;;;;;5067727;28;20009;-67
2023/03/30 06:01:01;;;;;;;9.20;2.42;;;;;;;;;;5069214;28;20035;-68
2023/03/30 06:03:26;;;;;;;8.27;3.50;;;;;;;;;;5069520;28;20017;-68
2023/03/30 06:05:52;;;;;;;7.28;2.72;;;;;;;;;;5089817;28;20441;-69
2023/03/30 06:08:18;;;;;;;17.00;3.28;;;;;;;;;;5085267;28;20028;-68
2023/03/30 06:10:50;;;;;;;6.70;2.55;;;;;;;;;;5079861;28;20039;-65
2023/03/30 06:13:16;;;;;;;12.80;2.63;;;;;;;;;;5088763;28;20523;-66
2023/03/30 06:15:41;;;;;;;7.47;2.28;;;;;;;;;;5089410;28;20128;-68
2023/03/30 06:18:07;;;;;;;7.55;2.05;;;;;;;;;;5051255;28;20021;-65
2023/03/30 06:20:32;;;;;;;14.07;2.53;;;;;;;;;;5077029;28;20024;-67
2023/03/30 06:22:57;;;;;;;9.55;2.00;;;;;;;;;;5071852;28;20031;-67
2023/03/30 06:25:23;;;;;;;19.10;2.53;;;;;;;;;;5087804;28;20095;-66
2023/03/30 06:27:48;;;;;;;7.40;1.80;;;;;;;;;;5077615;28;20401;-68
2023/03/30 06:30:14;;;;;;;11.35;3.40;;;;;;;;;;5068467;28;20064;-66
2023/03/30 06:32:39;;;;;;;10.38;2.83;;;;;;;;;;5067540;28;20123;-67
2023/03/30 06:35:05;;;;;;;11.93;3.53;;;;;;;;;;5081293;28;20020;-68
2023/03/30 06:37:30;;;;;;;11.00;2.90;;;;;;;;;;5067643;28;20024;-68
2023/03/30 06:39:56;;;;;;;12.60;3.45;;;;;;;;;;5068170;28;20017;-66
2023/03/30 06:42:21;;;;;;;10.88;2.53;;;;;;;;;;5055815;28;20008;-68
2023/03/30 06:44:46;;;;;;;6.00;2.22;;;;;;;;;;5083715;28;20020;-67
2023/03/30 06:47:11;;;;;;;10.88;2.55;;;;;;;;;;5067273;28;20016;-66
2023/03/30 06:49:37;;;;;;;11.45;2.28;;;;;;;;;;5074530;28;20028;-68
2023/03/30 06:52:02;;;;;;;17.08;2.92;;;;;;;;;;5050421;28;20108;-65
2023/03/30 06:54:27;;;;;;;7.95;2.38;;;;;;;;;;5067960;28;20043;-66
2023/03/30 06:56:52;;;;;;;8.88;2.78;;;;;;;;;;5067484;28;20052;-65
2023/03/30 06:59:17;;;;;;;9.85;2.72;;;;;;;;;;5066921;28;20189;-67
2023/03/30 07:01:43;;;;;;;11.95;2.75;;;;;;;;;;5068318;28;20021;-67
2023/03/30 07:04:09;;;;;;;18.58;2.92;;;;;;;;;;5068255;28;20028;-67
2023/03/30 07:06:34;;;;;;;7.40;2.95;;;;;;;;;;5068222;28;20529;-66
2023/03/30 07:09:00;;;;;;;12.75;2.42;;;;;;;;;;5078835;28;20020;-69
2023/03/30 07:11:25;;;;;;;9.40;2.45;;;;;;;;;;5069791;28;20020;-66
2023/03/30 07:13:51;;;;;;;12.73;2.75;;;;;;;;;;5068057;28;20089;-66
2023/03/30 07:16:16;;;;;;;12.75;2.90;;;;;;;;;;5067889;28;20336;-66
2023/03/30 07:18:41;;;;;;;10.38;2.35;;;;;;;;;;5066328;28;20134;-67
2023/03/30 07:21:07;;;;;;;6.35;2.22;;;;;;;;;;5079684;28;20031;-68
2023/03/30 07:23:32;;;;;;;11.13;2.40;;;;;;;;;;5075475;28;20023;-67
2023/03/30 07:25:58;;;;;;;6.82;1.98;;;;;;;;;;5083343;28;20524;-68
2023/03/30 07:28:23;;;;;;;6.88;2.47;;;;;;;;;;5065565;28;20025;-66
2023/03/30 07:30:48;;;;;;;9.45;2.30;;;;;;;;;;5067917;28;20560;-67
2023/03/30 07:33:14;;;;;;;10.57;2.58;;;;;;;;;;5066963;28;20027;-68
2023/03/30 07:35:45;;;;;;;7.80;2.60;;;;;;;;;;5097397;22;20548;-70
2023/03/30 07:38:11;;;;;;;6.07;2.13;;;;;;;;;;5088276;28;20050;-69
2023/03/30 07:40:37;;;;;;;7.97;2.42;;;;;;;;;;5071208;28;20020;-69
2023/03/30 07:43:02;;;;;;;9.63;2.28;;;;;;;;;;5088699;28;20024;-70
2023/03/30 07:45:27;;;;;;;11.00;2.63;;;;;;;;;;5089087;28;20529;-68
2023/03/30 07:47:52;;;;;;;11.35;3.17;;;;;;;;;;5087241;28;20055;-70
2023/03/30 07:50:18;;;;;;;8.63;2.78;;;;;;;;;;5088589;28;20069;-69
2023/03/30 07:52:43;;;;;;;7.50;2.28;;;;;;;;;;5089209;28;20035;-70
2023/03/30 07:55:08;;;;;;;8.57;2.75;;;;;;;;;;5089015;28;20478;-70
2023/03/30 07:57:33;;;;;;;9.82;2.75;;;;;;;;;;5087599;28;20465;-70
2023/03/30 07:59:59;;;;;;;10.98;2.75;;;;;;;;;;5089120;28;20501;-70
2023/03/30 08:02:24;;;;;;;7.10;2.45;;;;;;;;;;5088068;28;20113;-69
2023/03/30 08:04:51;;;;;;;10.95;2.50;;;;;;;;;;5088696;28;20074;-70
2023/03/30 08:07:16;;;;;;;8.80;2.30;;;;;;;;;;5088438;28;20017;-69
2023/03/30 08:09:42;;;;;;;10.15;2.85;;;;;;;;;;5089216;28;20020;-68
2023/03/30 08:12:08;;;;;;;8.18;2.40;;;;;;;;;;5089255;28;20031;-69
2023/03/30 08:14:33;;;;;;;27.08;4.60;;;;;;;;;;5088719;28;20028;-69
2023/03/30 08:16:58;;;;;;;15.05;2.70;;;;;;;;;;5088007;28;20032;-69
2023/03/30 08:19:24;;;;;;;11.25;2.83;;;;;;;;;;5091155;28;20031;-68
2023/03/30 08:21:49;;;;;;;11.23;3.17;;;;;;;;;;5092953;28;20016;-68
2023/03/30 08:24:15;;;;;;;13.65;2.70;;;;;;;;;;5087540;28;20017;-70
2023/03/30 08:26:40;;;;;;;15.95;2.80;;;;;;;;;;5075700;28;20044;-70
2023/03/30 08:29:06;;;;;;;7.72;2.30;;;;;;;;;;5090550;28;20054;-69
2023/03/30 08:31:31;;;;;;;13.80;2.83;;;;;;;;;;5092594;28;20065;-69
2023/03/30 08:33:57;;;;;;;7.10;2.72;;;;;;;;;;5091161;28;20020;-70
2023/03/30 08:36:22;;;;;;;10.30;3.30;;;;;;;;;;5091548;28;20402;-67
2023/03/30 08:38:47;;;;;;;9.30;2.60;;;;;;;;;;5092434;28;20020;-71
2023/03/30 08:41:28;;;;;;;10.85;3.50;;;;;;;;;;5092592;28;20020;-70
2023/03/30 08:44:00;;;;;;;10.43;3.35;;;;;;;;;;5090786;28;20024;-68
2023/03/30 08:46:25;;;;;;;14.55;3.13;;;;;;;;;;5091350;28;20076;-69
2023/03/30 08:48:52;;;;;;;16.80;3.17;;;;;;;;;;5090525;28;20091;-69
2023/03/30 08:51:20;;;;;;;8.38;2.67;;;;;;;;;;5091768;28;20038;-69
2023/03/30 08:53:47;;;;;;;9.48;3.08;;;;;;;;;;5092654;28;20020;-70
2023/03/30 08:56:17;;;;;;;18.40;2.90;;;;;;;;;;5084319;28;20051;-69
2023/03/30 08:59:11;;;;;;;14.27;2.88;;;;;;;;;;5075941;28;20035;-66
2023/03/30 09:01:36;;;;;;;12.25;2.85;;;;;;;;;;5069590;28;20028;-69
2023/03/30 09:04:07;;;;;;;11.18;2.65;;;;;;;;;;5084646;28;20095;-71
2023/03/30 09:06:33;;;;;;;14.15;3.78;;;;;;;;;;5090421;28;20111;-69
2023/03/30 09:08:58;;;;;;;12.25;2.85;;;;;;;;;;5090408;28;20035;-69
2023/03/30 09:11:29;;;;;;;11.00;3.10;;;;;;;;;;5091835;28;20012;-69
2023/03/30 09:13:55;;;;;;;13.85;3.05;;;;;;;;;;5090961;28;20031;-69
2023/03/30 09:16:26;;;;;;;12.40;2.83;;;;;;;;;;5072827;28;20024;-69
2023/03/30 09:18:56;;;;;;;8.38;2.45;;;;;;;;;;5077834;28;20030;-69
2023/03/30 09:21:22;;;;;;;38.40;3.95;;;;;;;;;;5070975;28;20449;-70
2023/03/30 09:23:47;;;;;;;5.95;2.40;;;;;;;;;;5091302;28;20031;-68
2023/03/30 09:26:13;;;;;;;7.30;2.63;;;;;;;;;;5092175;28;20463;-71
2023/03/30 09:28:52;;;;;;;10.93;2.50;;;;;;;;;;5072996;28;20035;-68
2023/03/30 09:31:28;;;;;;;11.18;2.92;;;;;;;;;;5091619;28;20065;-69
2023/03/30 09:33:54;;;;;;;10.23;2.60;;;;;;;;;;5089763;28;20049;-69
2023/03/30 09:36:19;;;;;;;11.93;2.58;;;;;;;;;;5090007;28;20397;-68
2023/03/30 09:38:44;;;;;;;10.15;3.53;;;;;;;;;;5091154;28;20027;-68
2023/03/30 09:41:32;;;;;;;17.33;2.90;;;;;;;;;;5091871;28;20440;-70
2023/03/30 09:43:58;;;;;;;12.05;3.00;;;;;;;;;;5086376;28;20031;-68
2023/03/30 09:46:23;;;;;;;10.65;2.97;;;;;;;;;;5090800;28;20534;-68
2023/03/30 09:48:50;;;;;;;11.63;2.80;;;;;;;;;;5090070;28;20618;-68
2023/03/30 09:51:19;;;;;;;9.45;2.30;;;;;;;;;;5090394;28;20020;-68
2023/03/30 09:53:46;;;;;;;9.75;2.47;;;;;;;;;;5090987;28;20028;-68
2023/03/30 09:56:37;;;;;;;15.73;2.70;;;;;;;;;;5074007;28;20088;-67
2023/03/30 09:59:20;;;;;;;13.32;3.08;;;;;;;;;;5085478;28;20028;-70
2023/03/30 10:01:45;;;;;;;9.98;2.33;;;;;;;;;;5078026;28;20103;-70
2023/03/30 10:04:11;;;;;;;12.65;2.88;;;;;;;;;;5089668;28;20091;-69
2023/03/30 10:06:47;;;;;;;11.35;2.33;;;;;;;;;;5089612;28;20440;-69
2023/03/30 10:09:13;;;;;;;11.00;2.22;;;;;;;;;;5085118;28;20081;-69
2023/03/30 10:11:46;;;;;;;11.50;2.70;;;;;;;;;;5090142;28;20038;-69
2023/03/30 10:14:32;;;;;;;9.70;2.47;;;;;;;;;;5072070;28;20103;-67
2023/03/30 10:16:58;;;;;;;13.10;2.20;;;;;;;;;;5085135;28;20024;-70
2023/03/30 10:19:24;;;;;;;9.32;2.20;;;;;;;;;;5087154;28;20316;-70
2023/03/30 10:21:57;;;;;;;12.75;2.90;;;;;;;;;;5061224;28;20044;-67
2023/03/30 10:24:27;;;;;;;11.73;2.58;;;;;;;;;;5087121;28;20379;-71
2023/03/30 10:26:56;;;;;;;5.97;2.13;;;;;;;;;;5087607;28;20023;-71
2023/03/30 10:29:22;;;;;;;12.80;2.65;;;;;;;;;;5077171;28;20019;-69
2023/03/30 10:31:48;;;;;;;15.07;2.22;;;;;;;;;;5072207;28;20019;-69
2023/03/30 10:34:19;;;;;;;10.43;2.25;;;;;;;;;;5088383;28;20040;-70
2023/03/30 10:36:46;;;;;;;9.25;2.75;;;;;;;;;;5088740;28;20032;-70
2023/03/30 10:39:13;;;;;;;9.50;2.22;;;;;;;;;;5089919;28;20541;-69
2023/03/30 10:41:40;;;;;;;13.00;2.13;;;;;;;;;;5087966;28;20044;-67
2023/03/30 10:44:21;;;;;;;10.52;2.55;;;;;;;;;;5085147;28;20671;-69
2023/03/30 10:46:47;;;;;;;8.10;2.47;;;;;;;;;;5089131;28;20062;-70
2023/03/30 10:49:18;;;;;;;12.00;2.00;;;;;;;;;;5088425;28;20095;-71
2023/03/30 10:51:43;;;;;;;6.72;1.98;;;;;;;;;;5089470;28;20020;-70
2023/03/30 10:54:17;;;;;;;15.90;2.20;;;;;;;;;;5081069;28;20024;-70
2023/03/30 10:56:45;;;;;;;11.10;2.30;;;;;;;;;;5087641;28;20827;-71
2023/03/30 10:59:25;;;;;;;15.38;2.22;;;;;;;;;;5068385;28;20023;-69
2023/03/30 11:01:59;;;;;;;11.30;2.15;;;;;;;;;;5086612;28;20012;-69
2023/03/30 11:04:51;;;;;;;7.15;1.83;;;;;;;;;;5085482;28;20016;-68
2023/03/30 11:07:20;;;;;;;8.52;2.40;;;;;;;;;;5066464;28;20033;-71
2023/03/30 11:09:47;;;;;;;8.25;1.92;;;;;;;;;;5080224;28;20032;-70
2023/03/30 11:12:15;;;;;;;9.45;2.25;;;;;;;;;;5076250;28;20113;-70
2023/03/30 11:15:01;;;;;;;12.90;2.17;;;;;;;;;;5085447;28;20027;-69
2023/03/30 11:17:32;;;;;;;8.50;2.20;;;;;;;;;;5073607;28;20276;-69
2023/03/30 11:20:05;;;;;;;9.55;2.35;;;;;;;;;;5063065;28;20116;-68
2023/03/30 11:22:45;;;;;;;8.00;2.70;;;;;;;;;;5087336;28;20031;-70
2023/03/30 11:25:24;;;;;;;7.20;2.10;;;;;;;;;;5081728;28;20012;-68
2023/03/30 11:27:53;;;;;;;8.93;2.75;;;;;;;;;;5088141;28;20016;-70
2023/03/30 11:30:23;;;;;;;7.72;2.40;;;;;;;;;;5082761;28;20100;-69
2023/03/30 11:32:52;;;;;;;4.55;1.83;;;;;;;;;;5071197;28;20020;-68
2023/03/30 11:35:29;;;;;;;7.32;2.45;;;;;;;;;;5073437;28;20035;-67
2023/03/30 11:38:04;;;;;;;6.22;2.63;;;;;;;;;;5067669;28;20055;-70
2023/03/30 11:40:39;;;;;;;11.52;2.78;;;;;;;;;;5072599;28;20017;-70
2023/03/30 11:43:04;;;;;;;9.40;2.65;;;;;;;;;;5068735;28;20024;-69
2023/03/30 11:45:48;;;;;;;7.68;2.55;;;;;;;;;;5068178;28;20039;-69
2023/03/30 11:48:25;;;;;;;14.30;3.22;;;;;;;;;;5069505;28;20035;-67
2023/03/30 11:50:57;;;;;;;9.93;2.72;;;;;;;;;;5071100;28;20027;-67
2023/03/30 11:53:31;;;;;;;10.02;2.65;;;;;;;;;;5078285;28;20032;-69
2023/03/30 11:55:59;;;;;;;6.43;2.47;;;;;;;;;;5075905;28;20114;-69
2023/03/30 11:58:44;;;;;;;9.30;2.90;;;;;;;;;;5072187;28;20082;-67
2023/03/30 12:01:18;;;;;;;8.35;2.80;;;;;;;;;;5069367;28;20028;-68
2023/03/30 12:03:45;;;;;;;8.13;2.45;;;;;;;;;;5071983;28;20025;-69
2023/03/30 12:06:11;;;;;;;7.05;2.40;;;;;;;;;;5077478;28;20052;-68
2023/03/30 12:08:48;;;;;;;8.90;2.88;;;;;;;;;;5074869;28;20051;-68
2023/03/30 12:11:29;;;;;;;10.13;3.10;;;;;;;;;;5077642;28;20550;-70
2023/03/30 12:13:55;;;;;;;14.70;2.88;;;;;;;;;;5073287;28;20442;-69
2023/03/30 12:16:27;;;;;;;8.50;2.80;;;;;;;;;;5073985;28;20028;-68
2023/03/30 12:19:11;;;;;;;6.88;2.78;;;;;;;;;;5079187;28;20047;-68
2023/03/30 12:21:48;;;;;;;12.80;3.05;;;;;;;;;;5074451;28;20661;-68
2023/03/30 12:24:28;;;;;;;11.85;3.03;;;;;;;;;;5076585;28;20531;-69
2023/03/30 12:26:54;;;;;;;6.78;2.80;;;;;;;;;;5073770;28;20035;-69
2023/03/30 12:29:19;;;;;;;10.85;2.58;;;;;;;;;;5076250;28;20028;-68
2023/03/30 12:32:01;;;;;;;9.27;2.92;;;;;;;;;;5073705;28;20536;-68
2023/03/30 12:34:36;;;;;;;7.75;2.67;;;;;;;;;;5071306;28;20020;-69
2023/03/30 12:37:22;;;;;;;8.75;2.58;;;;;;;;;;5075215;28;20070;-69
2023/03/30 12:39:50;;;;;;;6.05;2.13;;;;;;;;;;5059459;28;20055;-69
2023/03/30 12:42:33;;;;;;;7.57;2.50;;;;;;;;;;5071163;28;20031;-68
2023/03/30 12:45:01;;;;;;;13.68;2.00;;;;;;;;;;5073257;28;20016;-71
2023/03/30 12:47:32;;;;;;;6.13;2.20;;;;;;;;;;5072294;28;20055;-68
2023/03/30 12:50:08;;;;;;;7.30;2.15;;;;;;;;;;5075405;28;20499;-68
2023/03/30 12:52:42;;;;;;;6.65;2.40;;;;;;;;;;5076648;28;20162;-69
2023/03/30 12:55:16;;;;;;;9.02;2.53;;;;;;;;;;5078466;28;20525;-69
2023/03/30 12:58:02;;;;;;;7.88;2.35;;;;;;;;;;5073763;28;20390;-69
2023/03/30 13:00:36;;;;;;;7.03;2.15;;;;;;;;;;5076348;28;20020;-69
2023/03/30 13:03:08;;;;;;;10.98;1.77;;;;;;;;;;5073572;28;20016;-69
2023/03/30 13:05:35;;;;;;;5.50;2.00;;;;;;;;;;5074331;28;20032;-72
2023/03/30 13:08:08;;;;;;;11.57;2.05;;;;;;;;;;5075014;28;20028;-69
2023/03/30 13:10:35;;;;;;;8.73;1.80;;;;;;;;;;5075534;28;20024;-69
2023/03/30 13:13:01;;;;;;;9.10;2.40;;;;;;;;;;5071412;28;20354;-69
2023/03/30 13:15:41;;;;;;;9.70;1.73;;;;;;;;;;5076187;28;20016;-68
2023/03/30 13:18:06;;;;;;;9.70;1.67;;;;;;;;;;5072104;28;20053;-69
2023/03/30 13:20:36;;;;;;;13.15;2.20;;;;;;;;;;5071915;28;20059;-71
2023/03/30 13:23:11;;;;;;;3.35;1.35;;;;;;;;;;5075483;28;20028;-70
2023/03/30 13:25:39;;;;;;;7.35;1.85;;;;;;;;;;5072009;28;20940;-70
2023/03/30 13:28:23;;;;;;;15.93;2.13;;;;;;;;;;5069092;28;20041;-67
2023/03/30 13:30:48;;;;;;;5.60;1.55;;;;;;;;;;5074557;28;20036;-69
2023/03/30 13:33:17;;;;;;;4.38;1.38;;;;;;;;;;5070715;28;20509;-69
2023/03/30 13:35:45;;;;;;;6.40;1.30;;;;;;;;;;5096255;22;20426;-68
2023/03/30 13:38:29;;;;;;;7.20;1.67;;;;;;;;;;5060251;28;20067;-67
2023/03/30 13:41:07;;;;;;;5.35;1.30;;;;;;;;;;5059923;28;20036;-67
2023/03/30 13:43:38;;;;;;;12.13;2.00;;;;;;;;;;5057101;28;20024;-68
2023/03/30 13:46:22;;;;;;;6.03;1.63;;;;;;;;;;5061255;28;20048;-68
2023/03/30 13:48:56;;;;;;;13.27;2.22;;;;;;;;;;5058238;28;20048;-66
2023/03/30 13:51:26;;;;;;;19.42;2.00;;;;;;;;;;5060213;28;20028;-69
2023/03/30 13:54:00;;;;;;;6.68;1.55;;;;;;;;;;5059292;28;20073;-68
2023/03/30 13:56:28;;;;;;;8.75;1.98;;;;;;;;;;5058754;28;20047;-67
2023/03/30 13:58:58;;;;;;;9.13;1.90;;;;;;;;;;5059024;28;20020;-69
2023/03/30 14:01:24;;;;;;;7.05;1.88;;;;;;;;;;5059210;28;20036;-67
2023/03/30 14:03:54;;;;;;;11.98;1.13;;;;;;;;;;5056390;28;20201;-68
2023/03/30 14:06:21;;;;;;;24.98;1.85;;;;;;;;;;5060575;28;20020;-67
2023/03/30 14:08:56;;;;;;;6.13;0.70;;;;;;;;;;5064276;28;20092;-69
2023/03/30 14:11:23;;;;;;;8.10;0.75;;;;;;;;;;5068378;28;20112;-65
2023/03/30 14:13:51;;;;;;;4.97;0.77;;;;;;;;;;5048375;28;20025;-67
2023/03/30 14:16:24;;;;;;;11.93;1.08;;;;;;;;;;5047855;28;20092;-68
2023/03/30 14:18:49;;;;;;;7.75;1.00;;;;;;;;;;5046286;28;20082;-70
2023/03/30 14:21:16;;;;;;;2.67;1.27;;;;;;;;;;5054481;28;20024;-68
2023/03/30 14:23:50;;;;;;;5.10;0.88;;;;;;;;;;5048900;28;20028;-67
2023/03/30 14:26:17;;;;;;;1.35;0.90;;;;;;;;;;5059506;28;20339;-67
2023/03/30 14:28:43;;;;;;;1.85;0.80;;;;;;;;;;5063372;28;20097;-66
2023/03/30 14:31:18;;;;;;;7.82;1.25;;;;;;;;;;5052210;28;20113;-68
2023/03/30 14:33:43;;;;;;;4.22;1.13;;;;;;;;;;5067292;28;20064;-66
2023/03/30 14:36:11;;;;;;;3.33;1.30;;;;;;;;;;5055667;28;20028;-69
2023/03/30 14:38:44;;;;;;;4.05;1.10;;;;;;;;;;5048674;28;20096;-65
2023/03/30 14:41:13;;;;;;;6.10;1.55;;;;;;;;;;5059321;28;20825;-68
2023/03/30 14:43:39;;;;;;;8.02;1.20;;;;;;;;;;5072219;28;20020;-67
2023/03/30 14:46:06;;;;;;;4.78;1.35;;;;;;;;;;5054577;28;20017;-65
2023/03/30 14:48:34;;;;;;;2.85;1.02;;;;;;;;;;5046566;28;20033;-67